Time;durP1;ratioP1;P1;durP2;ratioP2;P2;SDS_P1;SDS_P2;PMS_P1;PMS_P2;Temp;Humidity;BMP_temperature;BMP_pressure;BME280_temperature;BME280_humidity;BME280_pressure;Samples;Min_cycle;Max_cycle;Signal;HPM_P1;HPM_P2
2022/03/10 05:10:17;;;;;;;17.02;10.45;;;;;;;6.80;47.19;101478.44;5605313;31;89290;-54
2022/03/10 05:13:20;;;;;;;16.50;10.63;;;;;;;6.80;47.19;101478.44;5583414;32;33859;-55
2022/03/10 05:16:22;;;;;;;17.77;10.13;;;;;;;6.26;47.90;101493.53;5583453;31;34160;-54
2022/03/10 05:19:25;;;;;;;17.05;10.45;;;;;;;6.26;47.88;101498.88;5583546;32;33517;-54
2022/03/10 05:22:45;;;;;;;15.23;9.98;;;;;;;6.31;47.18;101504.31;5583523;31;34126;-54
2022/03/10 05:25:48;;;;;;;15.60;10.45;;;;;;;6.40;45.84;101508.31;5583672;31;33208;-55
2022/03/10 05:28:50;;;;;;;19.50;8.88;;;;;;;6.46;45.01;101512.75;5583319;31;34818;-55
2022/03/10 05:31:53;;;;;;;17.90;9.50;;;;;;;6.45;45.31;101519.09;5583473;32;33574;-55
2022/03/10 05:34:55;;;;;;;14.55;8.77;;;;;;;6.59;45.85;101528.56;5583253;31;33550;-54
2022/03/10 05:37:57;;;;;;;15.65;8.77;;;;;;;6.53;44.14;101529.44;5583024;32;34320;-54
2022/03/10 05:41:00;;;;;;;10.43;7.32;;;;;;;6.54;43.49;101539.06;5583315;31;34152;-54
2022/03/10 05:44:03;;;;;;;12.30;6.60;;;;;;;6.46;42.53;101533.25;5583430;31;33605;-54
2022/03/10 05:47:06;;;;;;;10.20;7.07;;;;;;;6.47;41.61;101541.00;5583444;32;34242;-54
2022/03/10 05:50:09;;;;;;;10.32;7.30;;;;;;;6.40;41.13;101537.59;5582876;31;34392;-55
2022/03/10 05:53:11;;;;;;;10.95;5.87;;;;;;;6.45;41.50;101545.72;5588738;31;33331;-55
2022/03/10 05:56:14;;;;;;;12.23;6.47;;;;;;;6.31;40.73;101544.28;5594721;31;33703;-54
2022/03/10 05:59:16;;;;;;;11.88;6.43;;;;;;;6.42;40.52;101556.81;5602798;31;33558;-54
2022/03/10 06:02:21;;;;;;;9.60;5.87;;;;;;;6.47;39.61;101561.50;5599417;31;33658;-56
2022/03/10 06:05:24;;;;;;;9.15;5.53;;;;;;;6.23;39.91;101566.69;5572134;32;33720;-54
2022/03/10 06:08:26;;;;;;;11.52;5.45;;;;;;;6.18;39.80;101565.72;5582608;31;34321;-54
2022/03/10 06:11:29;;;;;;;9.20;5.65;;;;;;;6.35;39.58;101572.06;5582867;32;34432;-55
2022/03/10 06:14:32;;;;;;;8.10;5.28;;;;;;;6.15;39.81;101574.16;5574298;31;33917;-54
2022/03/10 06:17:34;;;;;;;9.52;5.43;;;;;;;6.29;39.21;101580.94;5563213;32;33707;-54
2022/03/10 06:20:36;;;;;;;8.82;5.32;;;;;;;6.35;39.33;101572.06;5570186;32;34764;-54
2022/03/10 06:23:42;;;;;;;8.10;5.35;;;;;;;6.28;38.99;101579.34;5551480;32;33641;-54
2022/03/10 06:26:44;;;;;;;11.63;5.03;;;;;;;6.33;38.67;101584.81;5557392;32;33652;-54
2022/03/10 06:29:46;;;;;;;12.37;7.15;;;;;;;6.12;38.96;101586.88;5557473;32;33818;-54
2022/03/10 06:32:48;;;;;;;11.32;5.95;;;;;;;6.01;39.25;101582.28;5559391;32;34172;-54
2022/03/10 06:35:51;;;;;;;9.02;5.78;;;;;;;6.22;39.78;101596.19;5563244;32;34334;-54
2022/03/10 06:38:54;;;;;;;9.50;5.43;;;;;;;6.11;39.23;101597.75;5549889;32;33748;-54
2022/03/10 06:41:57;;;;;;;10.90;5.78;;;;;;;6.15;39.12;101600.78;5549814;32;33729;-54
2022/03/10 06:45:00;;;;;;;9.75;5.20;;;;;;;6.09;39.62;101611.28;5560012;32;34428;-54
2022/03/10 06:48:02;;;;;;;8.52;5.30;;;;;;;6.15;40.57;101617.56;5568601;32;34386;-54
2022/03/10 06:51:05;;;;;;;10.65;5.03;;;;;;;6.22;38.68;101623.63;5569575;32;33744;-53
2022/03/10 06:54:07;;;;;;;9.75;5.65;;;;;;;6.24;38.90;101623.41;5554511;32;33625;-54
2022/03/10 06:57:10;;;;;;;11.93;5.30;;;;;;;6.33;38.97;101627.44;5549647;32;34425;-54
2022/03/10 07:00:13;;;;;;;8.70;5.32;;;;;;;6.53;38.42;101632.53;5550042;32;33652;-54
2022/03/10 07:03:15;;;;;;;9.40;5.20;;;;;;;6.56;38.23;101635.56;5549751;32;33749;-54
2022/03/10 07:06:18;;;;;;;10.43;5.70;;;;;;;6.52;38.10;101638.88;5549523;32;33672;-54
2022/03/10 07:09:21;;;;;;;9.27;5.80;;;;;;;6.30;38.28;101643.84;5549291;32;33197;-54
2022/03/10 07:12:27;;;;;;;17.73;6.05;;;;;;;6.32;38.78;101652.41;5549878;32;34291;-54
2022/03/10 07:15:29;;;;;;;11.57;6.40;;;;;;;6.57;38.79;101652.38;5549729;32;34589;-54
2022/03/10 07:18:32;;;;;;;11.52;6.45;;;;;;;6.81;38.72;101655.97;5549821;32;33785;-53
2022/03/10 07:21:37;;;;;;;14.57;6.65;;;;;;;6.87;38.02;101659.59;5549540;32;34261;-54
2022/03/10 07:24:40;;;;;;;9.48;6.47;;;;;;;6.97;37.74;101657.22;5559078;32;33652;-54
2022/03/10 07:27:43;;;;;;;12.37;7.28;;;;;;;7.14;37.36;101652.88;5568082;32;33666;-54
2022/03/10 07:30:45;;;;;;;13.68;6.47;;;;;;;7.06;37.47;101658.53;5568562;32;33611;-54
2022/03/10 07:33:47;;;;;;;9.80;6.07;;;;;;;7.06;38.00;101662.03;5567380;32;33392;-53
2022/03/10 07:36:54;;;;;;;11.85;6.62;;;;;;;7.13;37.12;101661.13;5568946;32;34565;-54
2022/03/10 07:39:56;;;;;;;11.80;6.60;;;;;;;7.05;38.52;101657.75;5568822;32;33632;-54
2022/03/10 07:42:59;;;;;;;15.32;7.22;;;;;;;7.26;37.00;101666.28;5568863;32;33647;-54
2022/03/10 07:46:05;;;;;;;13.25;6.72;;;;;;;7.17;37.25;101657.78;5568613;31;33277;-53
2022/03/10 07:49:08;;;;;;;10.88;6.72;;;;;;;7.15;37.79;101667.03;5568755;32;34362;-54
2022/03/10 07:52:11;;;;;;;9.90;6.87;;;;;;;7.23;36.72;101654.19;5568693;32;33678;-54
2022/03/10 07:55:13;;;;;;;8.65;5.62;;;;;;;7.35;36.96;101659.59;5555528;32;33721;-54
2022/03/10 07:58:15;;;;;;;11.32;6.30;;;;;;;7.35;38.20;101672.09;5549311;32;33762;-54
2022/03/10 08:01:18;;;;;;;13.18;6.57;;;;;;;7.21;36.36;101666.94;5549239;32;33584;-54
2022/03/10 08:04:21;;;;;;;11.73;6.72;;;;;;;7.17;36.20;101663.09;5548838;32;33596;-54
2022/03/10 08:07:32;;;;;;;10.23;6.53;;;;;;;7.11;36.65;101658.66;6283959;26;33693;-85
2022/03/10 08:10:35;;;;;;;9.80;6.18;;;;;;;6.95;36.78;101657.44;5566706;32;34112;-86
2022/03/10 08:13:38;;;;;;;9.98;6.18;;;;;;;6.94;37.48;101660.34;5568703;32;33687;-86
2022/03/10 08:16:44;;;;;;;9.27;5.93;;;;;;;7.09;36.31;101666.09;5568823;32;34317;-86
2022/03/10 08:19:46;;;;;;;12.37;6.32;;;;;;;7.32;35.85;101662.72;5567829;32;34203;-86
2022/03/10 08:22:49;;;;;;;10.02;5.78;;;;;;;7.19;35.85;101663.72;5568756;32;34330;-86
2022/03/10 08:25:51;;;;;;;10.05;6.37;;;;;;;7.40;35.51;101662.38;5568554;32;34309;-85
2022/03/10 08:28:54;;;;;;;8.90;5.43;;;;;;;7.52;34.14;101663.22;5554516;32;33620;-85
2022/03/10 08:31:56;;;;;;;11.45;6.03;;;;;;;7.34;33.32;101673.94;5561086;32;34370;-86
2022/03/10 08:34:58;;;;;;;11.73;5.93;;;;;;;7.19;32.87;101663.72;5561525;32;33668;-85
2022/03/10 08:38:00;;;;;;;11.93;5.47;;;;;;;7.16;32.56;101682.00;5554535;32;34285;-86
2022/03/10 08:41:03;;;;;;;8.65;5.55;;;;;;;7.28;33.71;101667.69;5559400;32;34121;-86
2022/03/10 08:44:10;;;;;;;11.73;5.43;;;;;;;7.05;32.39;101668.41;5566798;32;33727;-88
2022/03/10 08:47:13;;;;;;;9.77;5.78;;;;;;;7.00;33.80;101662.91;5554056;32;32220;-86
2022/03/10 08:50:15;;;;;;;10.25;5.82;;;;;;;6.99;33.37;101661.31;5554174;32;34177;-85
2022/03/10 08:53:17;;;;;;;12.15;5.60;;;;;;;7.16;32.28;101658.81;5568353;32;33425;-86
2022/03/10 08:56:20;;;;;;;8.77;5.57;;;;;;;7.23;32.32;101666.72;5568304;32;33576;-85
2022/03/10 08:59:22;;;;;;;10.70;5.60;;;;;;;7.09;32.50;101665.28;5563775;32;34356;-88
2022/03/10 09:02:24;;;;;;;9.32;6.12;;;;;;;7.05;33.26;101660.41;5548574;32;33664;-85
2022/03/10 09:05:27;;;;;;;9.20;5.82;;;;;;;7.10;32.38;101666.91;5551814;32;33582;-85
2022/03/10 09:08:30;;;;;;;9.27;6.12;;;;;;;6.98;32.55;101678.31;5567351;32;35162;-86
2022/03/10 09:11:33;;;;;;;9.57;5.15;;;;;;;7.01;31.53;101672.53;5567658;32;33754;-85
2022/03/10 09:14:35;;;;;;;10.38;5.50;;;;;;;7.11;31.28;101673.84;5554413;32;33610;-85
2022/03/10 09:17:37;;;;;;;11.40;5.43;;;;;;;7.14;32.10;101684.06;5547875;32;33711;-86
2022/03/10 09:20:39;;;;;;;10.23;5.60;;;;;;;7.07;31.12;101681.50;5546541;32;33631;-84
2022/03/10 09:23:42;;;;;;;10.18;5.37;;;;;;;7.12;30.22;101678.97;5531369;32;33649;-87
2022/03/10 09:26:44;;;;;;;14.02;5.47;;;;;;;7.10;30.59;101677.56;5546761;32;33707;-86
2022/03/10 09:29:46;;;;;;;9.93;5.50;;;;;;;7.22;30.58;101687.25;5545542;32;34032;-85
2022/03/10 09:32:49;;;;;;;10.63;5.18;;;;;;;7.37;30.52;101686.84;5533285;32;34297;-85
2022/03/10 09:35:51;;;;;;;8.85;4.93;;;;;;;7.33;30.69;101685.66;5548007;32;33723;-86
2022/03/10 09:38:54;;;;;;;7.97;4.78;;;;;;;7.30;30.51;101686.12;5547691;32;35193;-86
2022/03/10 09:41:56;;;;;;;8.38;5.47;;;;;;;7.28;29.35;101691.69;5543774;32;34263;-85
2022/03/10 09:45:00;;;;;;;12.40;4.78;;;;;;;7.30;29.64;101692.25;5531484;32;33643;-86
2022/03/10 09:48:03;;;;;;;8.77;5.12;;;;;;;7.23;29.82;101693.41;5528539;32;34415;-86
2022/03/10 09:51:06;;;;;;;28.38;7.28;;;;;;;7.40;29.38;101701.59;5546979;32;33218;-85
2022/03/10 09:54:09;;;;;;;13.80;5.30;;;;;;;7.50;29.39;101689.31;5547427;32;33300;-86
2022/03/10 09:57:17;;;;;;;7.05;4.65;;;;;;;7.48;28.93;101696.75;5547276;32;34209;-86
2022/03/10 10:00:20;;;;;;;8.23;4.32;;;;;;;7.44;28.30;101690.22;5547963;32;34260;-86
2022/03/10 10:03:23;;;;;;;9.68;4.35;;;;;;;7.45;27.60;101693.69;5538055;32;33578;-86
2022/03/10 10:06:25;;;;;;;7.15;3.85;;;;;;;7.63;29.07;101695.50;5550383;32;33628;-86
2022/03/10 10:09:50;;;;;;;6.95;3.85;;;;;;;7.69;27.40;101695.41;5544401;32;33572;-85
2022/03/10 10:12:53;;;;;;;12.15;5.12;;;;;;;7.76;26.17;101709.47;5533085;32;33625;-85
2022/03/10 10:16:01;;;;;;;20.92;4.93;;;;;;;7.68;27.31;101700.97;5549062;32;34489;-86
2022/03/10 10:19:04;;;;;;;13.82;4.90;;;;;;;7.88;27.00;101696.16;5535985;32;33710;-86
2022/03/10 10:22:08;;;;;;;8.40;4.00;;;;;;;7.99;26.69;101700.69;5545155;32;34324;-85
2022/03/10 10:25:11;;;;;;;6.65;3.80;;;;;;;8.03;25.67;101701.03;5534112;32;33152;-86
2022/03/10 10:28:27;;;;;;;11.60;4.25;;;;;;;8.06;26.90;101715.78;5547240;32;33724;-85
2022/03/10 10:31:30;;;;;;;;;;;;;;;7.87;25.21;101704.37;5541302;32;34257;-85
2022/03/10 10:34:33;;;;;;;21.80;3.97;;;;;;;7.80;26.51;101715.16;5546303;32;32964;-85
2022/03/10 10:37:37;;;;;;;7.10;3.87;;;;;;;7.94;25.83;101713.91;5549933;32;34361;-86
2022/03/10 10:40:43;;;;;;;7.95;3.62;;;;;;;7.99;24.77;101711.37;5549516;32;33733;-84
2022/03/10 10:43:49;;;;;;;9.85;3.80;;;;;;;7.93;24.93;101703.47;5546979;32;33301;-87
2022/03/10 10:47:00;;;;;;;10.65;3.65;;;;;;;7.90;23.96;101704.72;5548751;32;34438;-86
2022/03/10 10:50:07;;;;;;;8.27;4.03;;;;;;;7.99;23.87;101707.87;5530681;32;32246;-87
2022/03/10 10:53:32;;;;;;;9.52;3.70;;;;;;;8.26;24.11;101708.25;5548785;32;33547;-86
2022/03/10 10:56:48;;;;;;;5.90;3.53;;;;;;;7.99;24.00;101703.34;5547506;32;34523;-87
2022/03/10 11:00:03;;;;;;;9.25;3.92;;;;;;;8.04;23.70;101702.66;5548881;32;33466;-86
2022/03/10 11:03:26;;;;;;;9.10;4.10;;;;;;;7.89;24.44;101707.66;5528424;32;33604;-85
2022/03/10 11:06:29;;;;;;;6.65;3.50;;;;;;;8.05;24.72;101704.31;5549399;32;34373;-86
2022/03/10 11:09:33;;;;;;;5.43;3.60;;;;;;;8.15;24.07;101719.75;5547079;32;33666;-85
2022/03/10 11:12:39;;;;;;;9.55;3.45;;;;;;;8.18;23.59;101711.28;5543272;32;33834;-85
2022/03/10 11:15:43;;;;;;;5.53;3.17;;;;;;;8.11;24.33;101708.72;5536474;32;34478;-86
2022/03/10 11:18:52;;;;;;;9.25;4.35;;;;;;;8.12;23.26;101706.88;5532576;32;33393;-86
2022/03/10 11:22:14;;;;;;;9.63;4.05;;;;;;;8.20;23.62;101701.16;5532960;32;33633;-86
2022/03/10 11:25:54;;;;;;;13.05;4.37;;;;;;;8.17;24.67;101702.44;5545824;32;33521;-86
2022/03/10 11:28:59;;;;;;;6.50;4.28;;;;;;;8.11;24.01;101703.38;5547154;32;34241;-84
2022/03/10 11:32:05;;;;;;;7.72;3.95;;;;;;;8.16;23.56;101694.66;5539716;32;34866;-86
2022/03/10 11:35:15;;;;;;;7.80;3.75;;;;;;;8.27;24.00;101690.38;5540795;32;34287;-85
2022/03/10 11:38:19;;;;;;;10.55;4.78;;;;;;;8.23;24.46;101698.03;5547784;32;33635;-86
2022/03/10 11:41:46;;;;;;;7.80;4.28;;;;;;;8.28;24.77;101700.84;5548037;32;33620;-85
2022/03/10 11:45:05;;;;;;;7.80;4.20;;;;;;;8.12;25.98;101690.84;5520069;32;33831;-87
2022/03/10 11:48:22;;;;;;;11.32;4.82;;;;;;;8.36;25.12;101689.78;5545671;32;33637;-86
2022/03/10 11:51:43;;;;;;;7.10;4.62;;;;;;;8.40;24.92;101685.63;5537091;32;34180;-85
2022/03/10 11:55:12;;;;;;;10.00;4.28;;;;;;;8.51;25.01;101684.00;5543795;32;34415;-85
2022/03/10 11:58:17;;;;;;;7.25;4.62;;;;;;;8.43;25.11;101677.16;5547624;32;34397;-85
2022/03/10 12:01:19;;;;;;;9.43;5.07;;;;;;;8.49;24.66;101683.41;5548718;32;33996;-85
2022/03/10 12:04:33;;;;;;;8.43;4.55;;;;;;;8.35;25.10;101677.47;5546552;32;34385;-86
2022/03/10 12:07:41;;;;;;;7.72;4.95;;;;;;;8.16;25.27;101679.44;5546349;32;33742;-85
2022/03/10 12:10:47;;;;;;;7.22;4.78;;;;;;;8.40;25.57;101679.47;5547584;32;34195;-86
2022/03/10 12:13:51;;;;;;;;;;;;;;;8.39;25.60;101665.31;5541899;32;33917;-85
2022/03/10 12:16:54;;;;;;;5.60;3.95;;;;;;;8.55;25.89;101665.66;5535247;32;33826;-85
2022/03/10 12:20:16;;;;;;;7.57;4.78;;;;;;;8.87;25.46;101666.84;5542061;32;33814;-86
2022/03/10 12:23:19;;;;;;;10.68;4.40;;;;;;;8.86;24.49;101667.06;5548778;32;34549;-85
2022/03/10 12:26:31;;;;;;;9.43;5.05;;;;;;;8.74;25.05;101667.13;5549124;32;32209;-85
2022/03/10 12:29:35;;;;;;;12.30;4.35;;;;;;;8.85;24.50;101663.59;5534723;32;34330;-86
2022/03/10 12:32:44;;;;;;;9.57;4.50;;;;;;;8.45;24.75;101672.38;5555421;32;33663;-85
2022/03/10 12:35:55;;;;;;;6.93;4.25;;;;;;;8.59;23.93;101651.56;5545207;32;33938;-85
2022/03/10 12:39:03;;;;;;;10.27;4.75;;;;;;;8.68;23.96;101663.53;5546053;32;32097;-85
2022/03/10 12:42:06;;;;;;;8.10;4.50;;;;;;;8.74;24.53;101660.94;5548998;32;34361;-86
2022/03/10 12:45:09;;;;;;;7.37;4.43;;;;;;;8.70;23.68;101658.72;5540322;32;34115;-85
2022/03/10 12:48:21;;;;;;;10.95;4.72;;;;;;;8.71;25.39;101659.56;5530393;32;34074;-85
2022/03/10 12:51:26;;;;;;;9.18;4.62;;;;;;;8.87;24.67;101669.53;5544460;32;34426;-85
2022/03/10 12:54:30;;;;;;;7.93;4.47;;;;;;;8.87;25.28;101669.53;5547804;32;33755;-86
2022/03/10 12:57:36;;;;;;;7.35;4.50;;;;;;;8.97;24.50;101670.75;5545534;32;33709;-85
2022/03/10 13:00:40;;;;;;;8.90;4.37;;;;;;;8.91;23.64;101668.00;5532004;32;33927;-85
2022/03/10 13:03:54;;;;;;;7.62;4.87;;;;;;;8.76;24.03;101665.00;5529387;32;33599;-85
2022/03/10 13:06:59;;;;;;;8.60;4.18;;;;;;;8.93;24.86;101660.53;5538710;32;33848;-86
2022/03/10 13:10:08;;;;;;;7.25;4.28;;;;;;;8.99;24.19;101650.75;5533953;32;33617;-86
2022/03/10 13:13:26;;;;;;;7.95;4.87;;;;;;;8.98;24.64;101653.69;5529353;32;33612;-86
2022/03/10 13:16:45;;;;;;;5.97;4.32;;;;;;;8.64;24.22;101654.34;5548406;32;34439;-86
2022/03/10 13:19:48;;;;;;;7.20;4.55;;;;;;;8.43;24.83;101665.66;5537604;32;33694;-85
2022/03/10 13:22:51;;;;;;;8.13;4.35;;;;;;;8.71;24.07;101659.56;5529164;32;34400;-86
2022/03/10 13:25:57;;;;;;;7.15;4.18;;;;;;;8.95;23.97;101654.97;5545743;32;34403;-86
2022/03/10 13:28:59;;;;;;;6.65;3.83;;;;;;;8.99;23.98;101658.78;5540807;32;33736;-86
2022/03/10 13:32:06;;;;;;;5.22;3.47;;;;;;;9.01;23.54;101670.06;5547843;32;33762;-85
2022/03/10 13:35:09;;;;;;;7.32;3.85;;;;;;;8.99;23.27;101674.03;5550311;32;34257;-85
2022/03/10 13:38:21;;;;;;;8.20;4.20;;;;;;;8.84;23.18;101666.50;5550209;32;34508;-86
2022/03/10 13:41:23;;;;;;;8.02;3.85;;;;;;;8.89;23.19;101659.38;5547263;32;34343;-85
2022/03/10 13:44:28;;;;;;;5.93;3.25;;;;;;;9.05;22.96;101668.53;5550949;32;33796;-85
2022/03/10 13:48:03;;;;;;;5.90;3.80;;;;;;;8.98;22.69;101670.53;5549816;32;33728;-85
2022/03/10 13:51:06;;;;;;;5.62;3.75;;;;;;;8.88;22.60;101663.13;5550556;32;33190;-85
2022/03/10 13:54:08;;;;;;;9.02;3.72;;;;;;;9.07;23.21;101662.94;5570223;32;33626;-86
2022/03/10 13:57:12;;;;;;;8.02;4.10;;;;;;;9.20;22.81;101659.97;5570196;32;33695;-86
2022/03/10 14:00:15;;;;;;;6.57;3.75;;;;;;;9.30;22.40;101665.50;5554965;32;33664;-85
2022/03/10 14:03:19;;;;;;;5.97;3.75;;;;;;;9.17;22.59;101669.31;5531877;32;33619;-86
2022/03/10 14:06:21;;;;;;;9.63;4.10;;;;;;;9.22;23.94;101665.91;5549813;32;34345;-86
2022/03/10 14:09:25;;;;;;;7.82;3.78;;;;;;;9.24;24.33;101658.47;5550464;32;34409;-86
2022/03/10 14:12:30;;;;;;;8.25;4.35;;;;;;;9.17;23.60;101660.44;5531438;32;33657;-86
2022/03/10 14:15:35;;;;;;;8.68;4.30;;;;;;;9.26;23.49;101648.31;5549744;32;33504;-85
2022/03/10 14:18:47;;;;;;;9.13;4.12;;;;;;;9.30;22.54;101656.66;5548439;32;33672;-85
2022/03/10 14:21:51;;;;;;;11.55;4.32;;;;;;;9.19;22.67;101661.03;5543154;32;33667;-86
2022/03/10 14:24:57;;;;;;;5.78;3.60;;;;;;;9.21;22.48;101669.62;5545580;32;33632;-85
2022/03/10 14:28:06;;;;;;;11.12;3.83;;;;;;;9.07;21.43;101657.56;5557788;32;33101;-85
2022/03/10 14:31:14;;;;;;;9.48;4.37;;;;;;;9.08;22.55;101662.72;5548981;32;34445;-84
2022/03/10 14:34:17;;;;;;;8.57;3.25;;;;;;;9.34;22.16;101666.66;5541086;32;33874;-85
2022/03/10 14:37:19;;;;;;;8.68;4.20;;;;;;;9.39;21.16;101661.38;5535550;32;33777;-85
2022/03/10 14:40:22;;;;;;;7.18;3.40;;;;;;;9.23;21.61;101659.50;5538139;32;33736;-85
2022/03/10 14:43:24;;;;;;;6.43;3.50;;;;;;;9.33;20.91;101662.34;5518011;32;33774;-85
2022/03/10 14:46:26;;;;;;;14.40;4.12;;;;;;;9.34;20.50;101664.00;5542070;32;34477;-85
2022/03/10 14:49:29;;;;;;;7.97;3.53;;;;;;;9.26;21.77;101648.31;5542409;32;34244;-86
2022/03/10 14:52:31;;;;;;;6.68;3.45;;;;;;;9.28;21.35;101662.28;5536674;32;33814;-86
2022/03/10 14:55:34;;;;;;;10.93;3.70;;;;;;;9.18;19.78;101672.78;5546469;32;33309;-85
2022/03/10 14:58:38;;;;;;;7.68;3.17;;;;;;;9.13;20.03;101676.16;5550935;32;34473;-86
2022/03/10 15:01:41;;;;;;;5.68;3.05;;;;;;;9.12;18.89;101671.06;5530365;32;34393;-86
2022/03/10 15:04:43;;;;;;;5.87;3.40;;;;;;;9.05;19.18;101673.06;5532012;32;34427;-85
2022/03/10 15:07:45;;;;;;;7.53;3.45;;;;;;;8.89;19.61;101683.47;5533380;32;33733;-86
2022/03/10 15:10:49;;;;;;;4.80;2.97;;;;;;;8.78;19.82;101678.97;5552069;32;34083;-85
2022/03/10 15:13:51;;;;;;;6.82;3.20;;;;;;;9.04;19.33;101682.13;5535261;32;33621;-86
2022/03/10 15:16:53;;;;;;;7.57;3.45;;;;;;;9.02;19.24;101686.91;5549326;32;33589;-87
2022/03/10 15:19:56;;;;;;;7.03;4.07;;;;;;;8.86;18.90;101681.25;5545014;32;33755;-86
2022/03/10 15:22:59;;;;;;;9.18;4.90;;;;;;;8.92;21.07;101688.34;5531107;32;33874;-86
2022/03/10 15:26:04;;;;;;;10.48;4.82;;;;;;;8.93;23.38;101694.50;5548425;32;33705;-86
2022/03/10 15:29:06;;;;;;;8.73;5.00;;;;;;;8.96;23.98;101701.25;5548264;32;33766;-88
2022/03/10 15:32:08;;;;;;;9.43;4.90;;;;;;;8.90;24.23;101697.63;5549223;32;33753;-85
2022/03/10 15:35:14;;;;;;;13.32;4.72;;;;;;;8.67;24.50;101704.66;5549408;32;33754;-85
2022/03/10 15:38:16;;;;;;;16.73;5.12;;;;;;;8.72;24.66;101713.84;5533885;32;33723;-86
2022/03/10 15:41:19;;;;;;;10.73;4.97;;;;;;;8.60;24.27;101711.19;5540556;32;33807;-86
2022/03/10 15:44:25;;;;;;;9.52;4.72;;;;;;;8.56;24.21;101726.88;5568351;32;34182;-86
2022/03/10 15:47:27;;;;;;;17.73;5.00;;;;;;;8.49;24.66;101728.03;5532464;32;33722;-90
2022/03/10 15:50:31;;;;;;;13.57;4.20;;;;;;;8.41;23.80;101735.37;5534616;32;34442;-86
2022/03/10 15:53:34;;;;;;;13.80;4.55;;;;;;;8.27;25.70;101741.94;5548257;32;34498;-86
2022/03/10 15:56:38;;;;;;;8.55;4.37;;;;;;;8.29;24.09;101755.87;5561699;32;33685;-86
2022/03/10 15:59:40;;;;;;;8.27;4.40;;;;;;;8.15;23.68;101747.28;5569246;32;33744;-86
2022/03/10 16:02:43;;;;;;;9.23;4.72;;;;;;;8.05;24.00;101752.37;5550899;32;33904;-87
2022/03/10 16:05:46;;;;;;;8.75;4.47;;;;;;;7.74;24.68;101754.25;5549358;32;33634;-86
2022/03/10 16:08:48;;;;;;;6.78;4.20;;;;;;;7.70;24.61;101761.09;5549037;32;33355;-86
2022/03/10 16:11:50;;;;;;;8.25;4.68;;;;;;;7.66;24.78;101767.12;5548902;32;34339;-86
2022/03/10 16:14:53;;;;;;;9.90;4.72;;;;;;;7.51;25.53;101775.50;5549709;32;34326;-85
2022/03/10 16:17:59;;;;;;;7.75;4.60;;;;;;;7.54;25.55;101773.22;5549518;32;33647;-85
2022/03/10 16:21:01;;;;;;;12.77;5.55;;;;;;;7.56;25.23;101781.00;5531235;32;34224;-85
2022/03/10 16:24:24;;;;;;;10.32;5.25;;;;;;;7.56;25.61;101786.34;5530025;32;34009;-86
2022/03/10 16:27:27;;;;;;;8.25;4.80;;;;;;;7.49;25.11;101794.44;5535887;32;33321;-86
2022/03/10 16:30:29;;;;;;;8.38;4.75;;;;;;;7.25;25.21;101787.31;5537941;32;34555;-86
2022/03/10 16:33:32;;;;;;;6.80;4.57;;;;;;;7.24;25.41;101797.19;5549327;32;33630;-85
2022/03/10 16:36:34;;;;;;;13.25;4.68;;;;;;;7.39;24.75;101801.34;5548917;32;34461;-86
